createdAt,value
2022-11-28T00:03:11.169Z,7.60
2022-11-28T00:08:17.008Z,7.73
2022-11-28T00:13:22.472Z,7.58
2022-11-28T00:18:28.403Z,7.52
2022-11-28T00:23:34.295Z,7.48
2022-11-28T00:28:40.066Z,7.62
2022-11-28T00:33:45.600Z,7.69
2022-11-28T00:38:52.033Z,7.65
2022-11-28T00:43:58.448Z,7.71
2022-11-28T00:49:04.120Z,7.75
2022-11-28T00:54:09.646Z,7.75
2022-11-28T00:59:15.133Z,7.65
2022-11-28T01:04:20.534Z,7.73
2022-11-28T01:09:26.447Z,7.77
2022-11-28T01:14:32.183Z,7.82
2022-11-28T01:19:37.644Z,7.85
2022-11-28T01:24:43.312Z,7.82
2022-11-28T01:29:49.105Z,7.79
2022-11-28T01:34:54.574Z,7.88
2022-11-28T01:40:00.038Z,7.85
2022-11-28T01:45:23.634Z,7.77
2022-11-28T01:50:30.701Z,7.81
2022-11-28T01:55:39.197Z,7.87
2022-11-28T02:00:44.632Z,7.87
2022-11-28T02:05:52.491Z,7.96
2022-11-28T02:11:17.239Z,7.93
2022-11-28T02:16:28.390Z,7.85
2022-11-28T02:21:46.050Z,7.86
2022-11-28T02:27:03.336Z,7.92
2022-11-28T02:32:22.979Z,7.88
2022-11-28T02:37:37.383Z,7.80
2022-11-28T02:42:48.409Z,7.80
2022-11-28T02:47:56.827Z,7.86
2022-11-28T02:53:17.107Z,7.81
2022-11-28T02:58:22.506Z,7.72
2022-11-28T03:03:46.321Z,7.83
2022-11-28T03:09:07.123Z,7.86
2022-11-28T03:14:27.620Z,7.87
2022-11-28T03:19:36.129Z,7.79
2022-11-28T03:25:02.558Z,7.74
2022-11-28T03:30:19.662Z,7.70
2022-11-28T03:35:28.059Z,7.54
2022-11-28T03:40:36.495Z,7.54
2022-11-28T03:45:44.939Z,7.44
2022-11-28T03:50:53.385Z,7.43
2022-11-28T03:56:14.048Z,7.38
2022-11-28T04:01:42.170Z,7.39
2022-11-28T04:06:56.746Z,7.33
2022-11-28T04:12:11.243Z,7.29
2022-11-28T04:17:22.642Z,7.22
2022-11-28T04:22:33.816Z,7.16
2022-11-28T04:27:45.078Z,7.10
2022-11-28T04:32:53.523Z,7.08
2022-11-28T04:38:01.290Z,7.14
2022-11-28T04:43:12.575Z,7.21
2022-11-28T04:48:18.495Z,7.10
2022-11-28T04:53:45.269Z,7.09
2022-11-28T04:58:51.973Z,7.08
2022-11-28T05:03:58.169Z,6.97
2022-11-28T05:09:04.598Z,6.93
2022-11-28T05:14:10.236Z,6.88
2022-11-28T05:19:16.156Z,6.85
2022-11-28T05:24:22.570Z,6.78
2022-11-28T05:29:28.112Z,6.77
2022-11-28T05:34:33.493Z,6.72
2022-11-28T05:39:39.048Z,6.60
2022-11-28T05:44:44.442Z,6.58
2022-11-28T05:49:49.906Z,6.55
2022-11-28T05:54:55.367Z,6.49
2022-11-28T06:00:00.834Z,6.40
2022-11-28T06:05:34.825Z,6.37
2022-11-28T06:10:15.781Z,6.36
2022-11-28T06:15:21.168Z,6.29
2022-11-28T06:20:26.801Z,6.32
2022-11-28T06:25:32.193Z,6.25
2022-11-28T06:30:37.668Z,6.19
2022-11-28T06:35:43.133Z,6.17
2022-11-28T06:40:48.543Z,6.12
2022-11-28T06:45:54.135Z,6.05
2022-11-28T06:51:06.568Z,6.00
2022-11-28T06:56:14.977Z,6.05
2022-11-28T07:01:22.981Z,6.02
2022-11-28T07:06:29.809Z,6.08
2022-11-28T07:11:35.208Z,6.17
2022-11-28T07:16:41.344Z,6.12
2022-11-28T07:21:46.889Z,6.11
2022-11-28T07:26:52.449Z,6.05
2022-11-28T07:31:57.941Z,6.05
2022-11-28T07:37:03.641Z,5.93
2022-11-28T07:42:09.040Z,5.99
2022-11-28T07:47:14.435Z,5.90
2022-11-28T07:52:19.844Z,5.81
2022-11-28T07:57:25.309Z,5.87
2022-11-28T08:02:32.671Z,5.76
2022-11-28T08:07:38.282Z,5.76
2022-11-28T08:12:43.897Z,5.79
2022-11-28T08:17:49.309Z,5.72
2022-11-28T08:22:54.711Z,5.74
2022-11-28T08:28:00.176Z,6.71
2022-11-28T08:33:05.572Z,6.13
2022-11-28T08:38:10.971Z,6.09
2022-11-28T08:43:16.372Z,5.99
2022-11-28T08:48:21.877Z,6.21
2022-11-28T08:53:27.918Z,6.21
2022-11-28T08:58:33.325Z,6.22
2022-11-28T09:03:38.823Z,6.11
2022-11-28T09:08:45.353Z,6.11
2022-11-28T09:13:51.292Z,6.15
2022-11-28T09:18:58.712Z,6.24
2022-11-28T09:24:04.419Z,6.99
2022-11-28T09:29:09.814Z,6.58
2022-11-28T09:34:15.201Z,6.52
2022-11-28T09:39:20.615Z,6.54
2022-11-28T09:44:53.808Z,6.54
2022-11-28T09:50:07.004Z,6.40
2022-11-28T09:55:35.834Z,6.52
2022-11-28T10:00:44.287Z,6.66
2022-11-28T10:05:55.413Z,6.61
2022-11-28T10:11:06.823Z,6.56
2022-11-28T10:16:21.162Z,6.64
2022-11-28T10:21:29.741Z,7.12
2022-11-28T10:26:40.255Z,7.27
2022-11-28T10:31:47.761Z,7.17
2022-11-28T10:37:12.815Z,7.14
2022-11-28T10:42:49.744Z,7.15
2022-11-28T10:48:38.915Z,7.12
2022-11-28T10:53:26.209Z,7.19
2022-11-28T10:58:34.676Z,7.19
2022-11-28T11:03:41.685Z,7.13
2022-11-28T11:08:48.723Z,7.33
2022-11-28T11:14:08.776Z,7.33
2022-11-28T11:19:19.788Z,7.47
2022-11-28T11:24:25.175Z,7.54
2022-11-28T11:29:35.707Z,7.50
2022-11-28T11:34:46.583Z,7.61
2022-11-28T11:39:54.151Z,7.82
2022-11-28T11:45:18.849Z,7.93
2022-11-28T11:50:26.682Z,8.04
2022-11-28T11:55:34.952Z,8.07
2022-11-28T12:00:42.363Z,7.95
2022-11-28T12:06:16.375Z,8.12
2022-11-28T12:11:03.790Z,8.12
2022-11-28T12:16:27.322Z,8.19
2022-11-28T12:21:38.618Z,8.38
2022-11-28T12:26:58.915Z,8.25
2022-11-28T12:32:07.350Z,8.08
2022-11-28T12:38:02.661Z,8.02
2022-11-28T12:43:18.613Z,8.11
2022-11-28T12:48:53.598Z,8.11
2022-11-28T12:54:02.304Z,8.07
2022-11-28T12:59:11.786Z,8.06
2022-11-28T13:04:31.963Z,7.93
2022-11-28T13:09:46.841Z,7.95
2022-11-28T13:15:01.738Z,7.99
2022-11-28T13:20:28.051Z,7.91
2022-11-28T13:25:48.688Z,7.81
2022-11-28T13:31:00.077Z,7.77
2022-11-28T13:36:08.332Z,7.80
2022-11-28T13:41:59.474Z,7.61
2022-11-28T13:46:31.855Z,7.39
2022-11-28T13:51:37.954Z,7.37
2022-11-28T13:56:44.299Z,7.30
2022-11-28T14:01:52.769Z,7.20
2022-11-28T14:07:04.991Z,7.10
2022-11-28T14:12:22.540Z,6.94
2022-11-28T14:17:36.622Z,6.90
2022-11-28T14:23:08.762Z,6.77
2022-11-28T14:28:37.021Z,6.70
2022-11-28T14:33:44.830Z,6.62
2022-11-28T14:39:06.407Z,6.65
2022-11-28T14:44:50.732Z,6.52
2022-11-28T14:50:13.234Z,6.53
2022-11-28T14:55:28.233Z,6.44
2022-11-28T15:00:51.649Z,6.51
2022-11-28T15:06:06.044Z,6.47
2022-11-28T15:11:39.312Z,6.43
2022-11-28T15:16:50.635Z,6.36
2022-11-28T15:21:58.437Z,6.26
2022-11-28T15:27:12.718Z,6.23
2022-11-28T15:32:18.325Z,6.23
2022-11-28T15:37:27.101Z,6.21
2022-11-28T15:42:35.506Z,6.11
2022-11-28T15:47:41.537Z,6.15
2022-11-28T15:53:17.650Z,6.05
2022-11-28T15:58:31.272Z,6.06
2022-11-28T16:03:46.495Z,5.93
2022-11-28T16:09:01.022Z,5.83
2022-11-28T16:14:11.937Z,5.85
2022-11-28T16:19:36.080Z,5.90
2022-11-28T16:24:50.302Z,5.89
2022-11-28T16:29:56.110Z,5.96
2022-11-28T16:35:03.464Z,5.96
2022-11-28T16:40:23.641Z,5.99
2022-11-28T16:45:32.769Z,5.99
2022-11-28T16:50:38.949Z,5.97
2022-11-28T16:55:46.244Z,5.92
2022-11-28T17:01:03.263Z,5.79
2022-11-28T17:06:11.898Z,5.81
2022-11-28T17:11:20.101Z,5.75
2022-11-28T17:16:28.267Z,5.73
2022-11-28T17:21:46.071Z,5.72
2022-11-28T17:26:53.171Z,5.62
2022-11-28T17:31:59.537Z,5.58
2022-11-28T17:37:05.374Z,5.60
2022-11-28T17:42:12.127Z,5.60
2022-11-28T17:47:17.528Z,5.60
2022-11-28T17:52:24.873Z,5.55
2022-11-28T17:57:30.798Z,5.55
2022-11-28T18:02:36.238Z,5.52
2022-11-28T18:07:41.882Z,5.60
2022-11-28T18:12:49.038Z,5.64
2022-11-28T18:17:56.487Z,5.67
2022-11-28T18:23:01.953Z,5.65
2022-11-28T18:28:07.986Z,5.65
2022-11-28T18:33:14.680Z,5.61
2022-11-28T18:38:20.676Z,5.68
2022-11-28T18:43:26.077Z,5.62
2022-11-28T18:48:31.464Z,5.63
2022-11-28T18:53:37.415Z,5.63
2022-11-28T18:58:44.844Z,5.64
2022-11-28T19:03:53.485Z,5.62
2022-11-28T19:09:01.600Z,5.68
2022-11-28T19:14:08.114Z,5.61
2022-11-28T19:19:13.978Z,5.58
2022-11-28T19:24:19.424Z,5.61
2022-11-28T19:29:25.311Z,5.58
2022-11-28T19:34:31.023Z,5.59
2022-11-28T19:39:36.447Z,5.59
2022-11-28T19:44:41.934Z,5.50
2022-11-28T19:49:47.539Z,6.19
2022-11-28T19:54:53.503Z,5.78
2022-11-28T19:59:58.973Z,5.63
2022-11-28T20:05:04.446Z,5.57
2022-11-28T20:10:11.020Z,5.55
2022-11-28T20:15:18.492Z,5.45
2022-11-28T20:20:24.981Z,5.42
2022-11-28T20:25:30.710Z,5.51
2022-11-28T20:30:37.697Z,5.48
2022-11-28T20:35:43.271Z,5.41
2022-11-28T20:40:48.745Z,5.44
2022-11-28T20:45:54.203Z,5.45
2022-11-28T20:51:00.000Z,5.45
2022-11-28T20:56:07.707Z,5.40
2022-11-28T21:01:18.442Z,5.37
2022-11-28T21:06:24.322Z,5.37
2022-11-28T21:11:55.582Z,5.30
2022-11-28T21:16:37.377Z,5.38
2022-11-28T21:21:43.355Z,5.38
2022-11-28T21:26:53.459Z,5.38
2022-11-28T21:31:56.517Z,5.40
2022-11-28T21:37:01.927Z,5.41
2022-11-28T21:42:07.592Z,5.46
2022-11-28T21:47:13.327Z,5.37
2022-11-28T21:52:20.433Z,5.35
2022-11-28T21:57:25.831Z,5.38
2022-11-28T22:02:31.828Z,5.34
2022-11-28T22:07:37.589Z,5.37
2022-11-28T22:12:45.732Z,5.34
2022-11-28T22:17:51.198Z,5.30
2022-11-28T22:22:56.580Z,5.22
2022-11-28T22:28:02.633Z,5.25
2022-11-28T22:33:08.362Z,5.25
2022-11-28T22:38:18.468Z,5.16
2022-11-28T22:43:24.051Z,5.16
2022-11-28T22:48:31.376Z,5.17
2022-11-28T22:53:36.938Z,5.15
2022-11-28T22:58:44.860Z,5.22
2022-11-28T23:03:51.251Z,5.23
2022-11-28T23:08:58.179Z,5.87
2022-11-28T23:14:05.408Z,5.52
2022-11-28T23:19:17.265Z,5.40
2022-11-28T23:24:24.128Z,5.35
2022-11-28T23:29:30.428Z,5.29
2022-11-28T23:34:36.282Z,5.29
2022-11-28T23:39:41.750Z,5.35
2022-11-28T23:44:47.775Z,5.31
2022-11-28T23:49:54.613Z,5.28
2022-11-28T23:55:00.103Z,5.27
